Home > Products > Valid Products > MTR

000
SAUS46 KSTO 300653
MTRBLU
METAR KBLU 300652Z AUTO 05004KT 10SM CLR 23/01 A3028 RMK AO2 SLP143
T02330011





000
SAUS46 KSTO 300554
MTRBLU
METAR KBLU 300552Z AUTO 05005KT 10SM CLR 22/00 A3029 RMK AO2 SLP152
T02220000 10278 20217 50001





000
SAUS46 KSTO 300454
MTRBLU
METAR KBLU 300452Z AUTO 02003KT 10SM CLR 23/00 A3031 RMK AO2 SLP158
T02280000





000
SAUS46 KSTO 300353
MTRBLU
METAR KBLU 300352Z AUTO 00000KT 10SM CLR 22/00 A3030 RMK AO2 SLP157
T02220000





000
SAUS46 KSTO 300253
MTRBLU
METAR KBLU 300252Z AUTO 20003KT 10SM CLR 24/01 A3029 RMK AO2 SLP150
T02390006 53001





000
SAUS46 KSTO 300154
MTRBLU
METAR KBLU 300152Z AUTO VRB05KT 10SM CLR 26/02 A3028 RMK AO2 SLP145
T02560017





000
SAUS46 KSTO 300054
MTRBLU
METAR KBLU 300052Z AUTO 25006KT 10SM CLR 27/02 A3028 RMK AO2 SLP138
T02720022





000
SAUS46 KSTO 292354
MTRBLU
METAR KBLU 292352Z AUTO 26006KT 10SM CLR 27/03 A3028 RMK AO2 LTG
DSNT E SLP139 60000 T02720033 10278 20200 56012





000
SAUS46 KSTO 292253
MTRBLU
METAR KBLU 292252Z AUTO VRB05KT 10SM CLR 27/04 A3029 RMK AO2 SLP142
T02720039





000
SAUS46 KSTO 292153
MTRBLU
METAR KBLU 292152Z AUTO VRB06KT 10SM CLR 27/03 A3031 RMK AO2 SLP148
T02670028





000
SAUS46 KSTO 292053
MTRBLU
METAR KBLU 292052Z AUTO 28007KT 10SM CLR 26/02 A3032 RMK AO2 SLP157
60000 T02560022 58004





000
SAUS46 KSTO 291953
MTRBLU
METAR KBLU 291952Z AUTO 00000KT 10SM SCT120 23/03 A3033 RMK AO2
SLP168 T02330033





000
SAUS46 KSTO 291854
MTRBLU
METAR KBLU 291852Z AUTO 00000KT 10SM FEW055 SCT075 OVC110 23/05
A3034 RMK AO2 RAB15E28 SLP173 P0000 T02280050 $





000
SAUS46 KSTO 291753
MTRBLU
METAR KBLU 291752Z AUTO 15003KT 10SM SCT110 23/04 A3034 RMK AO2
SLP170 T02280039 10228 20200 53004 $





000
SAUS46 KSTO 291653
MTRBLU
METAR KBLU 291652Z AUTO 00000KT 10SM BKN120 22/04 A3032 RMK AO2
SLP166 T02220044 $





000
SAUS46 KSTO 291553
MTRBLU
METAR KBLU 291552Z AUTO 00000KT 10SM BKN120 22/01 A3032 RMK AO2
SLP167 T02170011 $





000
SAUS46 KSTO 291454
MTRBLU
METAR KBLU 291452Z AUTO 00000KT 10SM OVC120 21/M01 A3032 RMK AO2
SLP165 T02111006 53003 $





000
SAUS46 KSTO 291353
MTRBLU
METAR KBLU 291352Z AUTO 16005KT 10SM OVC110 21/M01 A3032 RMK AO2
SLP156 T02111006





000
SAUS46 KSTO 291253
MTRBLU
METAR KBLU 291252Z AUTO 10003KT 10SM OVC120 22/M01 A3031 RMK AO2
SLP151 T02171011





000
SAUS46 KSTO 291153
MTRBLU
METAR KBLU 291152Z AUTO 05003KT 10SM FEW060 SCT075 BKN110 22/M03
A3031 RMK AO2 SLP153 T02171033 10222 20206 50002





000
SAUS46 KSTO 291054
MTRBLU
METAR KBLU 291052Z AUTO 14003KT 10SM OVC100 22/M01 A3031 RMK AO2
SLP150 T02171011





000
SAUS46 KSTO 290954
MTRBLU
METAR KBLU 290952Z AUTO 00000KT 10SM OVC110 22/00 A3031 RMK AO2
SLP144 T02170000





000
SAUS46 KSTO 290854
MTRBLU
METAR KBLU 290852Z AUTO 00000KT 10SM CLR 22/01 A3031 RMK AO2 SLP147
T02170006 58007





000
SAUS46 KSTO 290754
MTRBLU
METAR KBLU 290752Z AUTO 09003KT 10SM BKN120 21/02 A3031 RMK AO2
SLP150 T02110017 402830206





000
SAUS46 KSTO 290654
MTRBLU
METAR KBLU 290652Z AUTO 09003KT 10SM CLR 21/03 A3032 RMK AO2 SLP157
T02060028





000
SAUS46 KSTO 290553
MTRBLU
METAR KBLU 290552Z AUTO 12003KT 10SM CLR 21/03 A3033 RMK AO2 SLP159
T02110028 10267 20206 50005





000
SAUS46 KSTO 290453
MTRBLU
METAR KBLU 290452Z AUTO 13003KT 10SM CLR 22/04 A3033 RMK AO2 SLP159
T02170044





000
SAUS46 KSTO 290354
MTRBLU
METAR KBLU 290352Z AUTO 13003KT 10SM CLR 22/05 A3032 RMK AO2 SLP160
T02170050





000
SAUS46 KSTO 290254
MTRBLU
METAR KBLU 290252Z AUTO 19006KT 10SM CLR 23/04 A3031 RMK AO2 SLP152
T02330039 53003





000
SAUS46 KSTO 290154
MTRBLU
METAR KBLU 290152Z AUTO 19005KT 10SM CLR 25/03 A3030 RMK AO2 SLP144
T02500033





000
SAUS46 KSTO 290054
MTRBLU
METAR KBLU 290052Z AUTO 26007KT 10SM CLR 26/04 A3030 RMK AO2 SLP144
T02610039





000
SAUS46 KSTO 282354
MTRBLU
METAR KBLU 282352Z AUTO 21007KT 10SM CLR 26/04 A3030 RMK AO2 SLP142
T02610044 10283 20256 58003





000
SAUS46 KSTO 282253
MTRBLU
METAR KBLU 282252Z AUTO 25008G15KT 200V270 10SM CLR 27/04 A3030 RMK
AO2 SLP143 T02670044





000
SAUS46 KSTO 282153
MTRBLU
METAR KBLU 282152Z AUTO 24007KT 210V280 10SM CLR 28/04 A3031 RMK AO2
SLP144 T02780044





000
SAUS46 KSTO 282053
MTRBLU
METAR KBLU 282052Z AUTO 21006KT 10SM CLR 27/01 A3031 RMK AO2 SLP146
T02720011 50001





000
SAUS46 KSTO 281953
MTRBLU
METAR KBLU 281952Z AUTO 22005KT 10SM CLR 27/00 A3032 RMK AO2 SLP147
T02720000





000
SAUS46 KSTO 281854
MTRBLU
METAR KBLU 281852Z AUTO VRB04KT 10SM FEW110 27/00 A3032 RMK AO2
SLP146 T02670000





000
SAUS46 KSTO 281754
MTRBLU
METAR KBLU 281752Z AUTO 28004KT 10SM CLR 26/02 A3031 RMK AO2 SLP145
T02610022 10261 20222 51008





000
SAUS46 KSTO 281654
MTRBLU
METAR KBLU 281652Z AUTO VRB03KT 10SM CLR 26/M02 A3030 RMK AO2 SLP149
T02561022





000
SAUS46 KSTO 281553
MTRBLU
METAR KBLU 281552Z AUTO 00000KT 10SM CLR 25/M02 A3029 RMK AO2 SLP146
T02501017





000
SAUS46 KSTO 281453
MTRBLU
METAR KBLU 281452Z AUTO 03003KT 10SM CLR 24/00 A3028 RMK AO2 SLP139
T02390000 53006





000
SAUS46 KSTO 281353
MTRBLU
METAR KBLU 281352Z AUTO 00000KT 10SM CLR 24/M02 A3028 RMK AO2 SLP133
T02391017





000
SAUS46 KSTO 281253
MTRBLU
METAR KBLU 281252Z AUTO 04003KT 10SM CLR 23/M02 A3026 RMK AO2 SLP129
T02281017





000
SAUS46 KSTO 281154
MTRBLU
METAR KBLU 281152Z AUTO 03003KT 10SM CLR 24/M01 A3026 RMK AO2 SLP122
T02391011 10244 20222 55003





000
SAUS46 KSTO 281054
MTRBLU
METAR KBLU 281052Z AUTO 01004KT 10SM CLR 23/M01 A3026 RMK AO2 SLP120
T02331006





000
SAUS46 KSTO 280953
MTRBLU
METAR KBLU 280952Z AUTO 04004KT 10SM CLR 23/01 A3026 RMK AO2 SLP123
T02280006





000
SAUS46 KSTO 280853
MTRBLU
METAR KBLU 280852Z AUTO 36003KT 10SM CLR 23/00 A3027 RMK AO2 SLP129
T02280000 58003





000
SAUS46 KSTO 280753
MTRBLU
METAR KBLU 280752Z AUTO 00000KT 10SM CLR 23/00 A3028 RMK AO2 SLP131
T02330000 402940211





000
SAUS46 KSTO 280653
MTRBLU
METAR KBLU 280652Z AUTO 00000KT 10SM CLR 24/M01 A3028 RMK AO2 SLP132
T02441011





000
SAUS46 KSTO 280553
MTRBLU
METAR KBLU 280552Z AUTO 04003KT 10SM CLR 23/05 A3028 RMK AO2 SLP139
T02330050 10294 20217 51007





000
SAUS46 KSTO 280453
MTRBLU
METAR KBLU 280452Z AUTO 04003KT 10SM CLR 22/06 A3028 RMK AO2 SLP144
T02220061





000
SAUS46 KSTO 280354
MTRBLU
METAR KBLU 280352Z AUTO 36003KT 10SM CLR 23/06 A3026 RMK AO2 SLP139
T02280061





000
SAUS46 KSTO 280254
MTRBLU
METAR KBLU 280252Z AUTO 25003KT 10SM CLR 24/04 A3026 RMK AO2 SLP136
T02440044 53003





000
SAUS46 KSTO 280153
MTRBLU
METAR KBLU 280152Z AUTO 25005KT 10SM CLR 26/04 A3025 RMK AO2 SLP129
T02610039





000
SAUS46 KSTO 280054
MTRBLU
METAR KBLU 280052Z AUTO VRB06KT 10SM CLR 27/04 A3025 RMK AO2 SLP124
T02720044





000
SAUS46 KSTO 272353
MTRBLU
METAR KBLU 272352Z AUTO 24004KT 10SM FEW120 28/M04 A3025 RMK AO2
SLP121 T02831044 10294 20250 56010





000
SAUS46 KSTO 272254
MTRBLU
METAR KBLU 272252Z AUTO VRB06G17KT 10SM SCT120 28/M03 A3026 RMK AO2
SLP127 T02831028





000
SAUS46 KSTO 272154
MTRBLU
METAR KBLU 272152Z AUTO VRB05KT 10SM CLR 29/M06 A3027 RMK AO2 SLP129
T02891056





000
SAUS46 KSTO 272054
MTRBLU
METAR KBLU 272052Z AUTO VRB04KT 10SM CLR 28/M07 A3028 RMK AO2 SLP133
T02831072 58003





000
SAUS46 KSTO 271954
MTRBLU
METAR KBLU 271952Z AUTO VRB05KT 10SM CLR 27/M02 A3029 RMK AO2 SLP138
T02721017





000
SAUS46 KSTO 271853
MTRBLU
METAR KBLU 271852Z AUTO 20006KT 10SM CLR 26/M02 A3029 RMK AO2 SLP143
T02611017





000
SAUS46 KSTO 271753
MTRBLU
METAR KBLU 271752Z AUTO 20005KT 10SM CLR 25/M01 A3029 RMK AO2 SLP148
T02501011 10250 20211 51007





000
SAUS46 KSTO 271654
MTRBLU
METAR KBLU 271652Z AUTO 00000KT 10SM CLR 24/04 A3029 RMK AO2 SLP147
T02390039





000
SAUS46 KSTO 271554
MTRBLU
METAR KBLU 271552Z AUTO 17005KT 10SM CLR 24/01 A3029 RMK AO2 SLP143
T02390006





000
SAUS46 KSTO 271454
MTRBLU
METAR KBLU 271452Z AUTO 09004KT 8SM CLR 22/01 A3027 RMK AO2 SLP140
T02170006 53008





000
SAUS46 KSTO 271353
MTRBLU
METAR KBLU 271352Z AUTO 11003KT 9SM CLR 22/M01 A3025 RMK AO2 SLP133
T02221006





000
SAUS46 KSTO 271253
MTRBLU
METAR KBLU 271252Z AUTO 13003KT 10SM CLR 23/M02 A3024 RMK AO2 SLP122
T02281022





000
SAUS46 KSTO 271154
MTRBLU
METAR KBLU 271152Z AUTO 05004KT 4SM HZ CLR 22/M04 A3024 RMK AO2
SLP121 T02221044 10228 20211 57002





000
SAUS46 KSTO 271053
MTRBLU
METAR KBLU 271052Z AUTO 03003KT 5SM HZ CLR 21/M04 A3024 RMK AO2
SLP121 T02111039





000
SAUS46 KSTO 270954
MTRBLU
METAR KBLU 270952Z AUTO 00000KT 9SM FEW022 22/M02 A3024 RMK AO2
SLP122 T02221022





000
SAUS46 KSTO 270935
MTRBLU
SPECI KBLU 270934Z AUTO 00000KT 10SM SCT022 22/M02 A3025 RMK AO2
T02221017





000
SAUS46 KSTO 270853
MTRBLU
METAR KBLU 270852Z AUTO 33003KT 10SM OVC023 22/M01 A3025 RMK AO2
SLP123 T02221006 56001





000
SAUS46 KSTO 270815
MTRBLU
SPECI KBLU 270814Z AUTO 00000KT 10SM BKN024 22/00 A3025 RMK AO2
T02220000





000
SAUS46 KSTO 270754
MTRBLU
METAR KBLU 270752Z AUTO 00000KT 10SM FEW026 22/M01 A3025 RMK AO2
SLP126 T02221006 402830194





000
SAUS46 KSTO 270708
MTRBLU
SPECI KBLU 270707Z AUTO 00000KT 10SM SCT027 22/01 A3024 RMK AO2
T02220006





    US Dept of Commerce
    National Oceanic and Atmospheric Administration
    National Weather Service
    1325 East West Highway
    Silver Spring, MD 20910
    Page Author: NWS Internet Services Team
Disclaimer
Information Quality
Credits
Glossary
Privacy Policy
Freedom of Information Act (FOIA)
About Us
Career Opportunities